createdAt,value
2023-04-19T00:01:52.348Z,52.85
2023-04-19T00:04:21.622Z,52.81
2023-04-19T00:06:52.186Z,53.02
2023-04-19T00:09:22.540Z,53.16
2023-04-19T00:11:52.853Z,53.27
2023-04-19T00:14:23.742Z,53.66
2023-04-19T00:16:53.516Z,53.81
2023-04-19T00:19:23.492Z,53.97
2023-04-19T00:21:52.659Z,54.03
2023-04-19T00:24:20.866Z,53.96
2023-04-19T00:26:49.032Z,53.95
2023-04-19T00:29:18.532Z,53.82
2023-04-19T00:31:47.327Z,53.90
2023-04-19T00:34:15.899Z,53.85
2023-04-19T00:36:44.427Z,53.94
2023-04-19T00:39:15.668Z,54.16
2023-04-19T00:41:43.858Z,54.10
2023-04-19T00:44:14.762Z,54.30
2023-04-19T00:46:46.734Z,54.25
2023-04-19T00:49:18.549Z,54.26
2023-04-19T00:51:47.782Z,54.15
2023-04-19T00:54:17.714Z,54.19
2023-04-19T00:56:48.630Z,54.19
2023-04-19T00:59:18.699Z,54.01
2023-04-19T01:01:52.076Z,54.02
2023-04-19T01:04:22.769Z,54.16
2023-04-19T01:06:54.291Z,54.05
2023-04-19T01:09:24.797Z,54.10
2023-04-19T01:11:54.353Z,54.01
2023-04-19T01:14:24.588Z,53.92
2023-04-19T01:16:55.069Z,53.82
2023-04-19T01:19:23.388Z,53.87
2023-04-19T01:21:53.016Z,53.88
2023-04-19T01:24:21.229Z,53.73
2023-04-19T01:26:51.561Z,53.67
2023-04-19T01:29:22.447Z,53.63
2023-04-19T01:31:54.190Z,53.54
2023-04-19T01:34:23.531Z,53.33
2023-04-19T01:36:52.563Z,53.27
2023-04-19T01:39:22.403Z,53.59
2023-04-19T01:41:50.782Z,53.48
2023-04-19T01:44:19.614Z,53.58
2023-04-19T01:46:50.248Z,53.90
2023-04-19T01:49:20.557Z,54.00
2023-04-19T01:51:50.359Z,54.17
2023-04-19T01:54:19.022Z,54.28
2023-04-19T01:56:50.441Z,54.29
2023-04-19T01:59:18.757Z,54.35
2023-04-19T02:01:47.994Z,54.33
2023-04-19T02:04:16.636Z,54.60
2023-04-19T02:06:45.478Z,54.71
2023-04-19T02:09:14.912Z,54.84
2023-04-19T02:11:44.512Z,54.93
2023-04-19T02:14:18.211Z,55.06
2023-04-19T02:16:47.912Z,55.29
2023-04-19T02:19:16.400Z,55.47
2023-04-19T02:21:44.757Z,55.64
2023-04-19T02:24:18.138Z,55.61
2023-04-19T02:26:46.373Z,55.62
2023-04-19T02:29:21.268Z,55.70
2023-04-19T02:31:50.532Z,55.82
2023-04-19T02:34:28.996Z,55.87
2023-04-19T02:36:58.394Z,56.00
2023-04-19T02:39:27.345Z,56.04
2023-04-19T02:41:56.177Z,56.01
2023-04-19T02:44:24.928Z,55.97
2023-04-19T02:46:53.354Z,56.01
2023-04-19T02:49:22.648Z,55.90
2023-04-19T02:51:55.511Z,55.89
2023-04-19T02:54:26.962Z,55.89
2023-04-19T02:56:55.298Z,55.94
2023-04-19T02:59:23.709Z,55.89
2023-04-19T03:01:52.030Z,55.73
2023-04-19T03:04:23.094Z,55.74
2023-04-19T03:06:52.410Z,55.80
2023-04-19T03:09:23.096Z,55.78
2023-04-19T03:11:54.117Z,55.74
2023-04-19T03:14:23.458Z,55.86
2023-04-19T03:16:56.810Z,55.93
2023-04-19T03:19:25.182Z,55.77
2023-04-19T03:21:54.714Z,55.90
2023-04-19T03:24:32.751Z,55.78
2023-04-19T03:27:09.789Z,55.79
2023-04-19T03:29:38.071Z,55.79
2023-04-19T03:32:12.763Z,55.87
2023-04-19T03:34:41.443Z,55.75
2023-04-19T03:37:10.846Z,55.58
2023-04-19T03:39:39.546Z,55.61
2023-04-19T03:42:09.309Z,55.47
2023-04-19T03:45:10.894Z,55.44
2023-04-19T03:47:42.488Z,55.28
2023-04-19T03:50:11.555Z,55.11
2023-04-19T03:52:40.584Z,54.93
2023-04-19T03:55:12.489Z,54.86
2023-04-19T03:57:41.761Z,54.72
2023-04-19T04:00:16.951Z,54.72
2023-04-19T04:02:48.027Z,54.62
2023-04-19T04:05:16.697Z,54.45
2023-04-19T04:07:46.207Z,54.58
2023-04-19T04:10:14.900Z,54.46
2023-04-19T04:12:44.510Z,54.43
2023-04-19T04:15:16.450Z,54.52
2023-04-19T04:17:48.660Z,54.30
2023-04-19T04:20:17.681Z,54.24
2023-04-19T04:22:48.298Z,54.11
2023-04-19T04:25:19.162Z,54.02
2023-04-19T04:27:52.142Z,53.90
2023-04-19T04:30:21.947Z,53.79
2023-04-19T04:32:51.624Z,53.60
2023-04-19T04:35:21.090Z,53.45
2023-04-19T04:38:00.412Z,53.42
2023-04-19T04:40:29.549Z,53.24
2023-04-19T04:43:01.334Z,53.25
2023-04-19T04:45:29.993Z,52.86
2023-04-19T04:47:58.706Z,52.35
2023-04-19T04:50:28.053Z,52.05
2023-04-19T04:52:57.977Z,51.67
2023-04-19T04:55:31.280Z,51.53
2023-04-19T04:58:00.098Z,51.59
2023-04-19T05:00:43.532Z,51.59
2023-04-19T05:03:12.186Z,51.29
2023-04-19T05:05:49.431Z,51.30
2023-04-19T05:08:27.326Z,51.21
2023-04-19T05:10:59.301Z,51.21
2023-04-19T05:13:32.471Z,51.16
2023-04-19T05:16:01.168Z,50.93
2023-04-19T05:18:29.875Z,50.83
2023-04-19T05:20:58.382Z,50.70
2023-04-19T05:23:29.896Z,50.45
2023-04-19T05:25:59.082Z,49.82
2023-04-19T05:28:28.929Z,49.16
2023-04-19T05:31:06.568Z,48.52
2023-04-19T05:33:40.238Z,48.13
2023-04-19T05:36:12.516Z,47.88
2023-04-19T05:38:43.229Z,48.15
2023-04-19T05:41:12.480Z,47.87
2023-04-19T05:43:41.496Z,47.65
2023-04-19T05:46:10.701Z,47.05
2023-04-19T05:48:39.266Z,46.88
2023-04-19T05:51:35.795Z,46.29
2023-04-19T05:54:19.431Z,46.54
2023-04-19T05:56:49.924Z,46.41
2023-04-19T05:59:20.736Z,46.36
2023-04-19T06:01:49.524Z,46.44
2023-04-19T06:04:18.638Z,46.31
2023-04-19T06:06:49.401Z,45.75
2023-04-19T06:09:23.397Z,45.36
2023-04-19T06:11:54.887Z,45.78
2023-04-19T06:14:25.291Z,45.97
2023-04-19T06:16:54.620Z,45.76
2023-04-19T06:19:24.167Z,46.02
2023-04-19T06:21:52.544Z,45.40
2023-04-19T06:24:20.926Z,45.18
2023-04-19T06:26:50.081Z,45.26
2023-04-19T06:29:27.829Z,45.36
2023-04-19T06:31:59.467Z,45.40
2023-04-19T06:34:27.875Z,45.13
2023-04-19T06:36:59.491Z,45.17
2023-04-19T06:39:28.718Z,44.85
2023-04-19T06:41:57.937Z,45.14
2023-04-19T06:44:28.665Z,45.31
2023-04-19T06:46:59.947Z,45.03
2023-04-19T06:49:32.386Z,44.88
2023-04-19T06:52:04.362Z,45.28
2023-04-19T06:54:33.745Z,45.29
2023-04-19T06:57:03.420Z,45.44
2023-04-19T06:59:33.836Z,45.80
2023-04-19T07:02:03.067Z,45.42
2023-04-19T07:04:41.375Z,45.19
2023-04-19T07:07:13.365Z,44.94
2023-04-19T07:09:42.008Z,45.36
2023-04-19T07:12:10.989Z,44.86
2023-04-19T07:14:39.922Z,45.00
2023-04-19T07:17:08.519Z,44.93
2023-04-19T07:19:37.648Z,44.73
2023-04-19T07:22:07.106Z,44.80
2023-04-19T07:24:36.193Z,44.68
2023-04-19T07:27:05.100Z,44.74
2023-04-19T07:29:37.353Z,44.76
2023-04-19T07:32:07.798Z,44.64
2023-04-19T07:34:43.990Z,44.06
2023-04-19T07:37:12.882Z,43.98
2023-04-19T07:39:43.873Z,44.17
2023-04-19T07:42:12.219Z,44.17
2023-04-19T07:44:40.589Z,43.86
2023-04-19T07:47:08.927Z,43.95
2023-04-19T07:49:41.268Z,43.24
2023-04-19T07:52:09.559Z,43.53
2023-04-19T07:54:39.505Z,43.14
2023-04-19T07:57:07.957Z,43.19
2023-04-19T07:59:42.570Z,43.37
2023-04-19T08:02:12.737Z,42.55
2023-04-19T08:05:05.402Z,42.57
2023-04-19T08:07:59.065Z,42.80
2023-04-19T08:10:30.821Z,42.82
2023-04-19T08:13:06.231Z,42.33
2023-04-19T08:18:07.402Z,40.79
2023-04-19T08:20:37.005Z,40.35
2023-04-19T08:23:20.601Z,40.27
2023-04-19T08:25:51.576Z,40.87
2023-04-19T08:28:21.967Z,40.59
2023-04-19T08:30:50.683Z,40.39
2023-04-19T08:33:20.118Z,40.57
2023-04-19T08:35:50.837Z,40.12
2023-04-19T08:38:21.877Z,40.13
2023-04-19T08:40:52.438Z,40.31
2023-04-19T08:43:22.935Z,39.36
2023-04-19T08:45:52.728Z,39.78
2023-04-19T08:48:38.545Z,39.93
2023-04-19T08:51:10.452Z,39.74
2023-04-19T08:53:40.906Z,39.14
2023-04-19T08:56:21.161Z,38.36
2023-04-19T08:59:15.651Z,38.43
2023-04-19T09:01:48.071Z,39.09
2023-04-19T09:04:35.832Z,38.64
2023-04-19T09:07:09.325Z,38.15
2023-04-19T09:09:59.674Z,38.01
2023-04-19T09:12:36.131Z,38.27
2023-04-19T09:15:06.957Z,37.79
2023-04-19T09:17:41.269Z,37.27
2023-04-19T09:20:09.713Z,37.10
2023-04-19T09:22:38.103Z,37.33
2023-04-19T09:27:41.851Z,36.51
2023-04-19T09:30:17.629Z,36.03
2023-04-19T09:32:52.822Z,36.38
2023-04-19T09:35:22.066Z,35.78
2023-04-19T09:40:33.501Z,35.04
2023-04-19T09:43:33.056Z,36.01
2023-04-19T09:45:55.894Z,36.30
2023-04-19T09:48:32.956Z,36.18
2023-04-19T09:51:05.821Z,36.06
2023-04-19T09:53:37.036Z,35.68
2023-04-19T09:56:06.513Z,35.64
2023-04-19T09:58:46.856Z,36.12
2023-04-19T10:01:20.172Z,36.21
2023-04-19T10:03:49.793Z,36.41
2023-04-19T10:08:50.398Z,35.52
2023-04-19T10:11:26.095Z,36.34
2023-04-19T10:13:57.693Z,35.59
2023-04-19T10:16:26.514Z,35.72
2023-04-19T10:18:54.874Z,35.76
2023-04-19T10:21:23.312Z,35.17
2023-04-19T10:23:51.656Z,35.02
2023-04-19T10:26:19.888Z,35.26
2023-04-19T10:28:48.456Z,35.65
2023-04-19T10:31:20.569Z,35.59
2023-04-19T10:33:53.106Z,36.01
2023-04-19T10:36:22.692Z,36.17
2023-04-19T10:38:56.016Z,36.14
2023-04-19T10:41:24.428Z,36.17
2023-04-19T10:43:56.799Z,36.20
2023-04-19T10:46:32.103Z,35.61
2023-04-19T10:49:03.080Z,34.65
2023-04-19T10:51:39.171Z,35.23
2023-04-19T10:54:11.354Z,35.87
2023-04-19T10:56:42.006Z,35.52
2023-04-19T10:59:24.854Z,35.60
2023-04-19T11:01:58.286Z,34.98
2023-04-19T11:04:33.018Z,35.26
2023-04-19T11:07:03.628Z,35.08
2023-04-19T11:09:42.206Z,35.26
2023-04-19T11:12:17.309Z,35.96
2023-04-19T11:14:49.473Z,35.92
2023-04-19T11:17:25.602Z,35.95
2023-04-19T11:20:07.228Z,35.98
2023-04-19T11:22:39.956Z,35.92
2023-04-19T11:25:19.505Z,36.37
2023-04-19T11:27:53.507Z,36.66
2023-04-19T11:30:29.803Z,37.18
2023-04-19T11:32:58.565Z,36.76
2023-04-19T11:35:28.732Z,37.04
2023-04-19T11:37:59.360Z,37.19
2023-04-19T11:40:27.665Z,37.76
2023-04-19T11:43:04.973Z,37.82
2023-04-19T11:45:39.579Z,38.37
2023-04-19T11:48:17.603Z,38.32
2023-04-19T11:50:50.298Z,38.44
2023-04-19T11:53:21.336Z,38.76
2023-04-19T11:55:54.006Z,38.95
2023-04-19T11:58:40.242Z,39.21
2023-04-19T12:01:11.189Z,39.84
2023-04-19T12:03:47.660Z,39.86
2023-04-19T12:06:29.898Z,39.99
2023-04-19T12:09:00.811Z,40.83
2023-04-19T12:11:50.883Z,41.17
2023-04-19T12:14:23.199Z,41.66
2023-04-19T12:17:05.977Z,41.82
2023-04-19T12:19:42.597Z,42.30
2023-04-19T12:22:20.618Z,42.46
2023-04-19T12:24:53.827Z,42.77
2023-04-19T12:27:22.297Z,42.65
2023-04-19T12:29:50.714Z,42.87
2023-04-19T12:32:19.840Z,42.88
2023-04-19T12:34:49.255Z,43.35
2023-04-19T12:37:18.293Z,43.39
2023-04-19T12:39:46.633Z,43.25
2023-04-19T12:42:16.245Z,42.65
2023-04-19T12:44:44.660Z,42.59
2023-04-19T12:47:13.156Z,42.62
2023-04-19T12:49:42.465Z,42.46
2023-04-19T12:52:12.232Z,42.74
2023-04-19T12:54:42.311Z,42.77
2023-04-19T12:57:11.057Z,42.73
2023-04-19T12:59:42.018Z,42.81
2023-04-19T13:02:10.326Z,43.11
2023-04-19T13:04:38.754Z,43.28
2023-04-19T13:07:07.274Z,43.36
2023-04-19T13:09:41.444Z,43.49
2023-04-19T13:12:10.802Z,43.51
2023-04-19T13:14:39.083Z,43.83
2023-04-19T13:17:07.830Z,44.12
2023-04-19T13:19:38.744Z,44.54
2023-04-19T13:22:09.072Z,44.96
2023-04-19T13:24:38.881Z,45.14
2023-04-19T13:27:09.201Z,45.49
2023-04-19T13:29:37.906Z,45.62
2023-04-19T13:32:19.825Z,45.59
2023-04-19T13:34:48.572Z,45.84
2023-04-19T13:37:17.449Z,45.81
2023-04-19T13:39:46.979Z,45.76
2023-04-19T13:42:15.818Z,45.96
2023-04-19T13:44:45.220Z,45.91
2023-04-19T13:47:13.874Z,45.95
2023-04-19T13:49:46.014Z,46.24
2023-04-19T13:52:14.378Z,46.10
2023-04-19T13:54:43.408Z,46.14
2023-04-19T13:57:12.561Z,45.90
2023-04-19T13:59:41.146Z,45.85
2023-04-19T14:02:09.591Z,45.60
2023-04-19T14:04:38.110Z,45.85
2023-04-19T14:07:06.739Z,45.84
2023-04-19T14:09:35.169Z,45.58
2023-04-19T14:12:04.829Z,45.74
2023-04-19T14:14:33.752Z,45.57
2023-04-19T14:17:02.137Z,45.51
2023-04-19T14:19:31.001Z,45.67
2023-04-19T14:21:59.395Z,45.64
2023-04-19T14:24:27.880Z,45.75
2023-04-19T14:27:10.392Z,45.69
2023-04-19T14:29:40.136Z,45.66
2023-04-19T14:32:24.509Z,45.71
2023-04-19T14:34:56.338Z,45.63
2023-04-19T14:37:27.994Z,45.31
2023-04-19T14:39:56.373Z,45.13
2023-04-19T14:42:24.725Z,44.76
2023-04-19T14:44:55.914Z,44.89
2023-04-19T14:47:25.006Z,44.72
2023-04-19T14:50:01.038Z,44.27
2023-04-19T14:52:34.944Z,43.85
2023-04-19T14:55:13.984Z,43.73
2023-04-19T14:57:42.342Z,43.81
2023-04-19T15:00:15.604Z,43.93
2023-04-19T15:02:44.995Z,43.97
2023-04-19T15:05:17.560Z,44.07
2023-04-19T15:07:51.517Z,44.33
2023-04-19T15:10:21.343Z,44.32
2023-04-19T15:12:53.626Z,44.08
2023-04-19T15:15:23.237Z,43.73
2023-04-19T15:17:51.666Z,43.92
2023-04-19T15:20:20.664Z,43.72
2023-04-19T15:22:56.421Z,43.73
2023-04-19T15:25:36.147Z,43.97
2023-04-19T15:28:10.985Z,43.85
2023-04-19T15:30:40.819Z,43.73
2023-04-19T15:33:09.666Z,43.66
2023-04-19T15:35:39.936Z,43.35
2023-04-19T15:38:08.257Z,43.08
2023-04-19T15:40:38.741Z,42.96
2023-04-19T15:43:07.184Z,43.03
2023-04-19T15:45:36.567Z,42.98
2023-04-19T15:48:05.044Z,43.00
2023-04-19T15:50:37.059Z,42.91
2023-04-19T15:53:06.611Z,42.58
2023-04-19T15:55:36.442Z,42.47
2023-04-19T15:58:07.949Z,42.31
2023-04-19T16:00:38.690Z,42.66
2023-04-19T16:03:14.979Z,42.72
2023-04-19T16:05:43.656Z,42.81
2023-04-19T16:08:12.101Z,43.00
2023-04-19T16:10:40.463Z,43.22
2023-04-19T16:13:09.085Z,43.19
2023-04-19T16:15:37.252Z,43.39
2023-04-19T16:18:07.033Z,43.55
2023-04-19T16:20:35.557Z,43.67
2023-04-19T16:23:04.326Z,43.89
2023-04-19T16:25:35.693Z,44.01
2023-04-19T16:28:04.760Z,44.27
2023-04-19T16:30:35.593Z,44.44
2023-04-19T16:33:04.117Z,44.53
2023-04-19T16:35:49.195Z,44.65
2023-04-19T16:38:17.390Z,44.64
2023-04-19T16:40:48.810Z,44.59
2023-04-19T16:43:17.574Z,44.72
2023-04-19T16:45:49.726Z,44.89
2023-04-19T16:48:24.594Z,45.05
2023-04-19T16:50:54.243Z,45.24
2023-04-19T16:53:24.955Z,45.32
2023-04-19T16:55:54.493Z,45.26
2023-04-19T16:58:24.850Z,45.13
2023-04-19T17:00:55.913Z,45.17
2023-04-19T17:03:29.225Z,45.20
2023-04-19T17:06:00.632Z,45.28
2023-04-19T17:08:33.038Z,45.25
2023-04-19T17:11:04.248Z,45.25
2023-04-19T17:13:47.958Z,45.25
2023-04-19T17:16:18.039Z,45.29
2023-04-19T17:18:57.103Z,45.41
2023-04-19T17:21:28.007Z,45.50
2023-04-19T17:23:59.486Z,45.67
2023-04-19T17:26:28.494Z,45.84
2023-04-19T17:29:01.932Z,45.89
2023-04-19T17:31:32.723Z,45.98
2023-04-19T17:34:01.801Z,46.13
2023-04-19T17:36:32.472Z,46.36
2023-04-19T17:39:19.176Z,46.49
2023-04-19T17:41:50.364Z,46.51
2023-04-19T17:44:18.608Z,46.51
2023-04-19T17:46:47.085Z,46.54
2023-04-19T17:49:19.227Z,46.59
2023-04-19T17:51:49.543Z,46.59
2023-04-19T17:54:19.150Z,46.47
2023-04-19T17:56:49.188Z,46.40
2023-04-19T17:59:17.743Z,45.98
2023-04-19T18:01:47.149Z,45.91
2023-04-19T18:04:20.267Z,45.68
2023-04-19T18:06:48.894Z,45.74
2023-04-19T18:09:20.044Z,45.43
2023-04-19T18:11:48.282Z,45.46
2023-04-19T18:14:17.167Z,45.25
2023-04-19T18:16:45.853Z,45.23
2023-04-19T18:19:19.018Z,45.35
2023-04-19T18:21:47.925Z,45.10
2023-04-19T18:24:16.182Z,44.99
2023-04-19T18:26:50.307Z,44.91
2023-04-19T18:29:21.072Z,44.77
2023-04-19T18:31:49.377Z,44.77
2023-04-19T18:34:18.016Z,44.66
2023-04-19T18:36:47.679Z,44.70
2023-04-19T18:39:17.821Z,44.79
2023-04-19T18:41:46.524Z,45.19
2023-04-19T18:44:39.011Z,45.43
2023-04-19T18:47:04.011Z,45.83
2023-04-19T18:49:32.797Z,46.20
2023-04-19T18:52:01.390Z,46.44
2023-04-19T18:54:30.177Z,46.68
2023-04-19T18:57:21.707Z,46.74
2023-04-19T18:59:48.581Z,47.03
2023-04-19T19:02:17.011Z,47.25
2023-04-19T19:04:56.098Z,47.60
2023-04-19T19:07:36.441Z,47.77
2023-04-19T19:12:43.113Z,48.33
2023-04-19T19:15:11.382Z,48.43
2023-04-19T19:17:39.760Z,48.58
2023-04-19T19:20:10.587Z,48.83
2023-04-19T19:22:39.047Z,48.95
2023-04-19T19:25:07.737Z,49.06
2023-04-19T19:27:36.379Z,49.26
2023-04-19T19:30:08.727Z,49.33
2023-04-19T19:32:37.996Z,49.44
2023-04-19T19:35:09.726Z,49.34
2023-04-19T19:37:39.505Z,49.32
2023-04-19T19:40:11.155Z,49.22
2023-04-19T19:43:02.634Z,49.05
2023-04-19T19:45:32.398Z,49.04
2023-04-19T19:48:01.242Z,48.98
2023-04-19T19:53:02.004Z,48.69
2023-04-19T19:55:30.867Z,48.39
2023-04-19T20:00:45.108Z,48.10
2023-04-19T20:03:15.072Z,48.01
2023-04-19T20:05:44.393Z,47.79
2023-04-19T20:08:13.636Z,47.71
2023-04-19T20:10:42.892Z,47.71
2023-04-19T20:13:16.374Z,47.73
2023-04-19T20:15:47.496Z,47.69
2023-04-19T20:18:17.953Z,47.81
2023-04-19T20:20:46.316Z,47.88
2023-04-19T20:23:15.884Z,48.05
2023-04-19T20:25:44.265Z,48.07
2023-04-19T20:28:13.598Z,47.93
2023-04-19T20:30:42.013Z,47.84
2023-04-19T20:33:10.606Z,47.92
2023-04-19T20:35:39.283Z,48.02
2023-04-19T20:38:09.920Z,47.89
2023-04-19T20:40:38.230Z,47.74
2023-04-19T20:43:08.425Z,47.68
2023-04-19T20:45:37.152Z,47.41
2023-04-19T20:48:06.355Z,47.51
2023-04-19T20:50:35.591Z,47.42
2023-04-19T20:53:04.055Z,47.43
2023-04-19T20:55:32.440Z,47.38
2023-04-19T20:58:02.814Z,47.14
2023-04-19T21:00:31.601Z,47.13
2023-04-19T21:03:04.701Z,47.08
2023-04-19T21:05:35.454Z,47.03
2023-04-19T21:08:04.301Z,46.87
2023-04-19T21:10:32.994Z,47.04
2023-04-19T21:13:01.333Z,46.94
2023-04-19T21:15:29.692Z,46.56
2023-04-19T21:17:58.076Z,46.50
2023-04-19T21:20:26.473Z,46.56
2023-04-19T21:22:54.767Z,46.49
2023-04-19T21:25:23.157Z,46.42
2023-04-19T21:27:51.371Z,46.39
2023-04-19T21:30:20.873Z,46.41
2023-04-19T21:32:50.561Z,46.42
2023-04-19T21:35:19.858Z,46.38
2023-04-19T21:37:48.106Z,46.30
2023-04-19T21:40:16.306Z,46.27
2023-04-19T21:42:44.742Z,46.31
2023-04-19T21:45:12.977Z,46.40
2023-04-19T21:47:41.504Z,46.56
2023-04-19T21:50:10.913Z,46.45
2023-04-19T21:52:40.734Z,46.41
2023-04-19T21:55:09.237Z,46.46
2023-04-19T21:57:39.379Z,46.38
2023-04-19T22:00:12.136Z,46.46
2023-04-19T22:02:45.611Z,46.40
2023-04-19T22:05:13.933Z,46.67
2023-04-19T22:07:43.188Z,46.57
2023-04-19T22:10:13.931Z,46.69
2023-04-19T22:12:55.073Z,46.66
2023-04-19T22:15:27.073Z,46.80
2023-04-19T22:17:57.653Z,46.81
2023-04-19T22:20:29.512Z,46.81
2023-04-19T22:22:57.842Z,46.85
2023-04-19T22:25:26.523Z,46.78
2023-04-19T22:27:55.406Z,46.77
2023-04-19T22:30:23.641Z,46.82
2023-04-19T22:32:52.232Z,46.84
2023-04-19T22:35:22.713Z,46.78
2023-04-19T22:37:51.454Z,46.79
2023-04-19T22:40:20.050Z,46.73
2023-04-19T22:42:48.768Z,46.60
2023-04-19T22:45:17.020Z,46.50
2023-04-19T22:47:45.724Z,46.60
2023-04-19T22:50:14.021Z,46.59
2023-04-19T22:52:42.790Z,46.52
2023-04-19T22:55:11.298Z,46.43
2023-04-19T22:57:41.287Z,46.35
2023-04-19T23:00:11.309Z,46.34
2023-04-19T23:02:40.472Z,46.25
2023-04-19T23:05:09.213Z,46.17
2023-04-19T23:07:42.196Z,46.23
2023-04-19T23:10:12.587Z,46.29
2023-04-19T23:12:41.492Z,46.50
2023-04-19T23:15:11.289Z,46.28
2023-04-19T23:17:40.011Z,46.18
2023-04-19T23:20:11.981Z,46.07
2023-04-19T23:22:40.729Z,46.11
2023-04-19T23:25:09.555Z,46.15
2023-04-19T23:27:39.304Z,46.04
2023-04-19T23:30:09.225Z,46.24
2023-04-19T23:32:38.161Z,46.17
2023-04-19T23:35:06.586Z,46.27
2023-04-19T23:37:35.525Z,46.22
2023-04-19T23:40:10.613Z,46.13
2023-04-19T23:42:39.092Z,45.97
2023-04-19T23:45:07.693Z,45.85
2023-04-19T23:47:36.925Z,45.96
2023-04-19T23:50:05.484Z,46.02
2023-04-19T23:52:35.748Z,45.94
2023-04-19T23:55:04.796Z,45.95
2023-04-19T23:57:36.258Z,45.89
